sensor_id;sensor_type;location;lat;lon;timestamp;P1;durP1;ratioP1;P2;durP2;ratioP2
12112;SDS011;6120;52.250;8.478;2022-12-13T00:01:54;42.38;;;16.58;;
12112;SDS011;6120;52.250;8.478;2022-12-13T00:04:21;47.83;;;17.73;;
12112;SDS011;6120;52.250;8.478;2022-12-13T00:06:49;41.72;;;16.55;;
12112;SDS011;6120;52.250;8.478;2022-12-13T00:09:16;43.83;;;16.63;;
12112;SDS011;6120;52.250;8.478;2022-12-13T00:11:44;41.13;;;16.42;;
12112;SDS011;6120;52.250;8.478;2022-12-13T00:14:11;42.42;;;16.95;;
12112;SDS011;6120;52.250;8.478;2022-12-13T00:16:39;49.53;;;19.58;;
12112;SDS011;6120;52.250;8.478;2022-12-13T00:19:06;65.38;;;24.67;;
12112;SDS011;6120;52.250;8.478;2022-12-13T00:21:33;52.70;;;23.10;;
12112;SDS011;6120;52.250;8.478;2022-12-13T00:23:59;43.65;;;19.17;;
12112;SDS011;6120;52.250;8.478;2022-12-13T00:26:28;48.03;;;18.27;;
12112;SDS011;6120;52.250;8.478;2022-12-13T00:29:00;46.83;;;18.30;;
12112;SDS011;6120;52.250;8.478;2022-12-13T00:31:30;50.55;;;18.40;;
12112;SDS011;6120;52.250;8.478;2022-12-13T00:34:17;41.85;;;16.85;;
12112;SDS011;6120;52.250;8.478;2022-12-13T00:36:44;41.35;;;16.75;;
12112;SDS011;6120;52.250;8.478;2022-12-13T00:39:11;42.88;;;18.08;;
12112;SDS011;6120;52.250;8.478;2022-12-13T00:41:39;49.20;;;19.75;;
12112;SDS011;6120;52.250;8.478;2022-12-13T00:44:06;47.80;;;18.83;;
12112;SDS011;6120;52.250;8.478;2022-12-13T00:46:33;45.50;;;17.75;;
12112;SDS011;6120;52.250;8.478;2022-12-13T00:49:00;40.92;;;18.30;;
12112;SDS011;6120;52.250;8.478;2022-12-13T00:51:28;44.40;;;16.55;;
12112;SDS011;6120;52.250;8.478;2022-12-13T00:53:56;40.22;;;16.98;;
12112;SDS011;6120;52.250;8.478;2022-12-13T00:56:24;47.85;;;17.67;;
12112;SDS011;6120;52.250;8.478;2022-12-13T00:58:52;38.00;;;15.07;;
12112;SDS011;6120;52.250;8.478;2022-12-13T01:01:20;39.22;;;15.73;;
12112;SDS011;6120;52.250;8.478;2022-12-13T01:03:50;51.65;;;17.67;;
12112;SDS011;6120;52.250;8.478;2022-12-13T01:06:20;43.53;;;16.70;;
12112;SDS011;6120;52.250;8.478;2022-12-13T01:08:48;40.00;;;16.55;;
12112;SDS011;6120;52.250;8.478;2022-12-13T01:11:15;46.50;;;17.15;;
12112;SDS011;6120;52.250;8.478;2022-12-13T01:13:42;37.72;;;15.93;;
12112;SDS011;6120;52.250;8.478;2022-12-13T01:16:10;41.42;;;16.05;;
12112;SDS011;6120;52.250;8.478;2022-12-13T01:18:37;40.70;;;16.38;;
12112;SDS011;6120;52.250;8.478;2022-12-13T01:21:14;42.63;;;16.00;;
12112;SDS011;6120;52.250;8.478;2022-12-13T01:23:42;43.58;;;16.33;;
12112;SDS011;6120;52.250;8.478;2022-12-13T01:26:11;42.00;;;16.80;;
12112;SDS011;6120;52.250;8.478;2022-12-13T01:28:39;46.60;;;18.35;;
12112;SDS011;6120;52.250;8.478;2022-12-13T01:31:07;43.08;;;16.92;;
12112;SDS011;6120;52.250;8.478;2022-12-13T01:33:35;40.03;;;16.25;;
12112;SDS011;6120;52.250;8.478;2022-12-13T01:36:03;42.83;;;16.25;;
12112;SDS011;6120;52.250;8.478;2022-12-13T01:38:33;40.83;;;16.13;;
12112;SDS011;6120;52.250;8.478;2022-12-13T01:41:03;48.28;;;18.88;;
12112;SDS011;6120;52.250;8.478;2022-12-13T01:46:14;45.70;;;17.65;;
12112;SDS011;6120;52.250;8.478;2022-12-13T01:48:52;43.40;;;15.90;;
12112;SDS011;6120;52.250;8.478;2022-12-13T01:51:28;43.92;;;17.48;;
12112;SDS011;6120;52.250;8.478;2022-12-13T01:53:59;42.33;;;16.75;;
12112;SDS011;6120;52.250;8.478;2022-12-13T01:56:30;41.05;;;16.95;;
12112;SDS011;6120;52.250;8.478;2022-12-13T01:59:04;44.97;;;17.15;;
12112;SDS011;6120;52.250;8.478;2022-12-13T02:01:32;46.38;;;17.67;;
12112;SDS011;6120;52.250;8.478;2022-12-13T02:03:59;37.83;;;16.70;;
12112;SDS011;6120;52.250;8.478;2022-12-13T02:06:28;46.90;;;18.27;;
12112;SDS011;6120;52.250;8.478;2022-12-13T02:08:59;45.25;;;17.52;;
12112;SDS011;6120;52.250;8.478;2022-12-13T02:11:26;41.03;;;17.10;;
12112;SDS011;6120;52.250;8.478;2022-12-13T02:13:53;46.40;;;17.98;;
12112;SDS011;6120;52.250;8.478;2022-12-13T02:26:43;44.42;;;17.63;;
12112;SDS011;6120;52.250;8.478;2022-12-13T02:32:07;46.45;;;18.70;;
12112;SDS011;6120;52.250;8.478;2022-12-13T02:34:45;45.60;;;18.55;;
12112;SDS011;6120;52.250;8.478;2022-12-13T02:37:23;43.28;;;16.95;;
12112;SDS011;6120;52.250;8.478;2022-12-13T02:40:06;44.83;;;17.00;;
12112;SDS011;6120;52.250;8.478;2022-12-13T02:42:38;46.00;;;18.27;;
12112;SDS011;6120;52.250;8.478;2022-12-13T02:45:19;43.30;;;17.10;;
12112;SDS011;6120;52.250;8.478;2022-12-13T02:47:51;43.35;;;16.92;;
12112;SDS011;6120;52.250;8.478;2022-12-13T02:50:20;36.25;;;16.73;;
12112;SDS011;6120;52.250;8.478;2022-12-13T02:52:47;40.00;;;16.50;;
12112;SDS011;6120;52.250;8.478;2022-12-13T02:55:14;39.50;;;16.35;;
12112;SDS011;6120;52.250;8.478;2022-12-13T03:00:14;41.08;;;15.75;;
12112;SDS011;6120;52.250;8.478;2022-12-13T03:11:52;36.13;;;16.20;;
12112;SDS011;6120;52.250;8.478;2022-12-13T03:14:48;48.83;;;17.40;;
12112;SDS011;6120;52.250;8.478;2022-12-13T03:17:42;42.28;;;16.80;;
12112;SDS011;6120;52.250;8.478;2022-12-13T03:20:21;43.78;;;15.75;;
12112;SDS011;6120;52.250;8.478;2022-12-13T03:22:50;41.42;;;16.65;;
12112;SDS011;6120;52.250;8.478;2022-12-13T03:25:17;48.78;;;17.35;;
12112;SDS011;6120;52.250;8.478;2022-12-13T03:27:57;38.78;;;15.95;;
12112;SDS011;6120;52.250;8.478;2022-12-13T03:30:27;42.80;;;17.08;;
12112;SDS011;6120;52.250;8.478;2022-12-13T03:32:54;48.17;;;18.03;;
12112;SDS011;6120;52.250;8.478;2022-12-13T03:35:21;42.03;;;15.32;;
12112;SDS011;6120;52.250;8.478;2022-12-13T03:37:48;41.30;;;15.15;;
12112;SDS011;6120;52.250;8.478;2022-12-13T03:40:16;43.40;;;16.35;;
12112;SDS011;6120;52.250;8.478;2022-12-13T03:42:43;36.58;;;15.68;;
12112;SDS011;6120;52.250;8.478;2022-12-13T03:45:10;46.70;;;17.70;;
12112;SDS011;6120;52.250;8.478;2022-12-13T03:47:36;42.10;;;16.90;;
12112;SDS011;6120;52.250;8.478;2022-12-13T03:50:03;42.60;;;17.67;;
12112;SDS011;6120;52.250;8.478;2022-12-13T03:52:50;38.28;;;16.40;;
12112;SDS011;6120;52.250;8.478;2022-12-13T03:55:17;42.85;;;15.48;;
12112;SDS011;6120;52.250;8.478;2022-12-13T03:57:44;43.05;;;17.65;;
12112;SDS011;6120;52.250;8.478;2022-12-13T04:00:11;39.22;;;14.98;;
12112;SDS011;6120;52.250;8.478;2022-12-13T04:02:38;42.25;;;15.82;;
12112;SDS011;6120;52.250;8.478;2022-12-13T04:05:05;44.72;;;15.32;;
12112;SDS011;6120;52.250;8.478;2022-12-13T04:07:31;47.10;;;18.60;;
12112;SDS011;6120;52.250;8.478;2022-12-13T04:09:59;41.53;;;16.30;;
12112;SDS011;6120;52.250;8.478;2022-12-13T04:12:26;38.38;;;15.30;;
12112;SDS011;6120;52.250;8.478;2022-12-13T04:15:14;43.85;;;15.55;;
12112;SDS011;6120;52.250;8.478;2022-12-13T04:17:41;41.22;;;15.57;;
12112;SDS011;6120;52.250;8.478;2022-12-13T04:20:08;39.92;;;16.75;;
12112;SDS011;6120;52.250;8.478;2022-12-13T04:22:35;48.77;;;17.90;;
12112;SDS011;6120;52.250;8.478;2022-12-13T04:25:02;40.78;;;16.17;;
12112;SDS011;6120;52.250;8.478;2022-12-13T04:27:29;41.75;;;15.88;;
12112;SDS011;6120;52.250;8.478;2022-12-13T04:29:56;39.70;;;15.85;;
12112;SDS011;6120;52.250;8.478;2022-12-13T04:32:23;37.00;;;16.10;;
12112;SDS011;6120;52.250;8.478;2022-12-13T04:34:52;38.55;;;16.33;;
12112;SDS011;6120;52.250;8.478;2022-12-13T04:37:26;37.60;;;14.35;;
12112;SDS011;6120;52.250;8.478;2022-12-13T04:39:53;35.58;;;14.35;;
12112;SDS011;6120;52.250;8.478;2022-12-13T04:42:26;42.80;;;15.68;;
12112;SDS011;6120;52.250;8.478;2022-12-13T04:44:53;39.08;;;14.75;;
12112;SDS011;6120;52.250;8.478;2022-12-13T04:47:19;40.55;;;15.73;;
12112;SDS011;6120;52.250;8.478;2022-12-13T04:49:46;40.70;;;15.77;;
12112;SDS011;6120;52.250;8.478;2022-12-13T04:52:13;37.70;;;15.15;;
12112;SDS011;6120;52.250;8.478;2022-12-13T04:54:48;41.20;;;15.32;;
12112;SDS011;6120;52.250;8.478;2022-12-13T04:57:21;39.10;;;15.55;;
12112;SDS011;6120;52.250;8.478;2022-12-13T04:59:48;41.95;;;16.27;;
12112;SDS011;6120;52.250;8.478;2022-12-13T05:02:15;36.13;;;15.18;;
12112;SDS011;6120;52.250;8.478;2022-12-13T05:04:49;39.55;;;16.23;;
12112;SDS011;6120;52.250;8.478;2022-12-13T05:07:20;42.75;;;16.63;;
12112;SDS011;6120;52.250;8.478;2022-12-13T05:09:47;48.77;;;18.00;;
12112;SDS011;6120;52.250;8.478;2022-12-13T05:12:13;47.75;;;17.50;;
12112;SDS011;6120;52.250;8.478;2022-12-13T05:14:49;37.03;;;14.73;;
12112;SDS011;6120;52.250;8.478;2022-12-13T05:17:18;44.72;;;15.90;;
12112;SDS011;6120;52.250;8.478;2022-12-13T05:19:45;35.67;;;15.10;;
12112;SDS011;6120;52.250;8.478;2022-12-13T05:22:12;46.60;;;16.65;;
12112;SDS011;6120;52.250;8.478;2022-12-13T05:24:46;39.47;;;16.92;;
12112;SDS011;6120;52.250;8.478;2022-12-13T05:27:12;38.65;;;16.67;;
12112;SDS011;6120;52.250;8.478;2022-12-13T05:29:54;42.08;;;16.00;;
12112;SDS011;6120;52.250;8.478;2022-12-13T05:32:30;34.15;;;14.57;;
12112;SDS011;6120;52.250;8.478;2022-12-13T05:35:09;38.58;;;15.68;;
12112;SDS011;6120;52.250;8.478;2022-12-13T05:37:37;39.17;;;15.43;;
12112;SDS011;6120;52.250;8.478;2022-12-13T05:40:03;35.65;;;15.07;;
12112;SDS011;6120;52.250;8.478;2022-12-13T05:42:30;38.33;;;15.43;;
12112;SDS011;6120;52.250;8.478;2022-12-13T05:44:57;44.33;;;16.25;;
12112;SDS011;6120;52.250;8.478;2022-12-13T05:47:24;42.72;;;16.65;;
12112;SDS011;6120;52.250;8.478;2022-12-13T05:49:50;38.20;;;15.07;;
12112;SDS011;6120;52.250;8.478;2022-12-13T05:52:17;45.45;;;17.42;;
12112;SDS011;6120;52.250;8.478;2022-12-13T05:57:12;44.65;;;16.58;;
12112;SDS011;6120;52.250;8.478;2022-12-13T05:59:38;43.38;;;16.63;;
12112;SDS011;6120;52.250;8.478;2022-12-13T06:02:05;48.65;;;17.17;;
12112;SDS011;6120;52.250;8.478;2022-12-13T06:04:32;49.63;;;18.20;;
12112;SDS011;6120;52.250;8.478;2022-12-13T06:06:58;46.53;;;18.27;;
12112;SDS011;6120;52.250;8.478;2022-12-13T06:09:25;63.92;;;21.85;;
12112;SDS011;6120;52.250;8.478;2022-12-13T06:11:51;50.30;;;19.05;;
12112;SDS011;6120;52.250;8.478;2022-12-13T06:14:26;49.03;;;18.85;;
12112;SDS011;6120;52.250;8.478;2022-12-13T06:16:53;47.20;;;18.38;;
12112;SDS011;6120;52.250;8.478;2022-12-13T06:19:20;45.33;;;16.92;;
12112;SDS011;6120;52.250;8.478;2022-12-13T06:21:48;48.70;;;19.10;;
12112;SDS011;6120;52.250;8.478;2022-12-13T06:24:16;51.50;;;20.05;;
12112;SDS011;6120;52.250;8.478;2022-12-13T06:26:44;47.33;;;18.02;;
12112;SDS011;6120;52.250;8.478;2022-12-13T06:29:12;46.97;;;18.60;;
12112;SDS011;6120;52.250;8.478;2022-12-13T06:31:51;44.50;;;17.35;;
12112;SDS011;6120;52.250;8.478;2022-12-13T06:34:19;43.67;;;16.95;;
12112;SDS011;6120;52.250;8.478;2022-12-13T06:36:45;47.45;;;18.38;;
12112;SDS011;6120;52.250;8.478;2022-12-13T06:39:12;49.42;;;17.27;;
12112;SDS011;6120;52.250;8.478;2022-12-13T06:41:40;46.58;;;16.95;;
12112;SDS011;6120;52.250;8.478;2022-12-13T06:44:07;43.95;;;17.67;;
12112;SDS011;6120;52.250;8.478;2022-12-13T06:46:34;43.28;;;17.35;;
12112;SDS011;6120;52.250;8.478;2022-12-13T06:49:00;42.85;;;16.50;;
12112;SDS011;6120;52.250;8.478;2022-12-13T06:51:27;41.85;;;17.13;;
12112;SDS011;6120;52.250;8.478;2022-12-13T06:53:58;40.67;;;15.85;;
12112;SDS011;6120;52.250;8.478;2022-12-13T06:56:26;45.95;;;18.90;;
12112;SDS011;6120;52.250;8.478;2022-12-13T06:58:52;43.97;;;16.50;;
12112;SDS011;6120;52.250;8.478;2022-12-13T07:01:26;41.95;;;16.48;;
12112;SDS011;6120;52.250;8.478;2022-12-13T07:04:02;43.30;;;16.17;;
12112;SDS011;6120;52.250;8.478;2022-12-13T07:06:29;42.40;;;16.45;;
12112;SDS011;6120;52.250;8.478;2022-12-13T07:08:56;45.00;;;17.23;;
12112;SDS011;6120;52.250;8.478;2022-12-13T07:11:24;39.92;;;16.17;;
12112;SDS011;6120;52.250;8.478;2022-12-13T07:13:52;42.72;;;16.10;;
12112;SDS011;6120;52.250;8.478;2022-12-13T07:16:19;39.33;;;15.83;;
12112;SDS011;6120;52.250;8.478;2022-12-13T07:18:47;41.53;;;16.02;;
12112;SDS011;6120;52.250;8.478;2022-12-13T07:21:13;44.58;;;15.82;;
12112;SDS011;6120;52.250;8.478;2022-12-13T07:23:47;42.58;;;16.27;;
12112;SDS011;6120;52.250;8.478;2022-12-13T07:26:20;43.22;;;16.80;;
12112;SDS011;6120;52.250;8.478;2022-12-13T07:28:47;44.10;;;16.88;;
12112;SDS011;6120;52.250;8.478;2022-12-13T07:31:20;44.50;;;15.55;;
12112;SDS011;6120;52.250;8.478;2022-12-13T07:33:47;44.80;;;15.38;;
12112;SDS011;6120;52.250;8.478;2022-12-13T07:36:15;45.47;;;16.98;;
12112;SDS011;6120;52.250;8.478;2022-12-13T07:38:43;40.42;;;16.38;;
12112;SDS011;6120;52.250;8.478;2022-12-13T07:41:10;43.50;;;18.05;;
12112;SDS011;6120;52.250;8.478;2022-12-13T07:43:37;41.45;;;16.05;;
12112;SDS011;6120;52.250;8.478;2022-12-13T07:46:04;44.10;;;16.75;;
12112;SDS011;6120;52.250;8.478;2022-12-13T07:48:31;39.88;;;16.63;;
12112;SDS011;6120;52.250;8.478;2022-12-13T07:51:02;35.35;;;15.70;;
12112;SDS011;6120;52.250;8.478;2022-12-13T07:53:32;40.85;;;16.80;;
12112;SDS011;6120;52.250;8.478;2022-12-13T07:56:09;41.33;;;16.67;;
12112;SDS011;6120;52.250;8.478;2022-12-13T07:58:38;42.50;;;16.58;;
12112;SDS011;6120;52.250;8.478;2022-12-13T08:01:08;40.65;;;16.52;;
12112;SDS011;6120;52.250;8.478;2022-12-13T08:03:35;43.95;;;16.25;;
12112;SDS011;6120;52.250;8.478;2022-12-13T08:06:06;42.60;;;16.13;;
12112;SDS011;6120;52.250;8.478;2022-12-13T08:08:33;43.38;;;16.50;;
12112;SDS011;6120;52.250;8.478;2022-12-13T08:11:08;41.75;;;15.75;;
12112;SDS011;6120;52.250;8.478;2022-12-13T08:13:37;45.22;;;16.88;;
12112;SDS011;6120;52.250;8.478;2022-12-13T08:16:05;39.17;;;15.73;;
12112;SDS011;6120;52.250;8.478;2022-12-13T08:18:53;44.00;;;17.40;;
12112;SDS011;6120;52.250;8.478;2022-12-13T08:21:32;39.70;;;15.80;;
12112;SDS011;6120;52.250;8.478;2022-12-13T08:24:21;36.28;;;14.93;;
12112;SDS011;6120;52.250;8.478;2022-12-13T08:26:49;37.33;;;14.57;;
12112;SDS011;6120;52.250;8.478;2022-12-13T08:29:15;42.08;;;15.32;;
12112;SDS011;6120;52.250;8.478;2022-12-13T08:31:57;36.55;;;14.57;;
12112;SDS011;6120;52.250;8.478;2022-12-13T08:34:26;38.17;;;14.88;;
12112;SDS011;6120;52.250;8.478;2022-12-13T08:36:53;37.95;;;14.60;;
12112;SDS011;6120;52.250;8.478;2022-12-13T08:39:32;39.72;;;15.85;;
12112;SDS011;6120;52.250;8.478;2022-12-13T08:42:02;38.22;;;14.90;;
12112;SDS011;6120;52.250;8.478;2022-12-13T08:44:42;40.10;;;16.15;;
12112;SDS011;6120;52.250;8.478;2022-12-13T08:47:09;35.37;;;15.13;;
12112;SDS011;6120;52.250;8.478;2022-12-13T08:49:36;38.70;;;15.40;;
12112;SDS011;6120;52.250;8.478;2022-12-13T08:52:03;37.97;;;15.45;;
12112;SDS011;6120;52.250;8.478;2022-12-13T08:54:31;40.60;;;15.68;;
12112;SDS011;6120;52.250;8.478;2022-12-13T08:56:58;41.90;;;15.15;;
12112;SDS011;6120;52.250;8.478;2022-12-13T08:59:25;38.85;;;15.30;;
12112;SDS011;6120;52.250;8.478;2022-12-13T09:01:52;43.25;;;16.23;;
12112;SDS011;6120;52.250;8.478;2022-12-13T09:06:57;41.63;;;15.65;;
12112;SDS011;6120;52.250;8.478;2022-12-13T09:09:27;42.33;;;15.75;;
12112;SDS011;6120;52.250;8.478;2022-12-13T09:11:55;36.75;;;15.77;;
12112;SDS011;6120;52.250;8.478;2022-12-13T09:14:25;43.33;;;16.35;;
12112;SDS011;6120;52.250;8.478;2022-12-13T09:16:59;37.75;;;14.35;;
12112;SDS011;6120;52.250;8.478;2022-12-13T09:19:28;43.75;;;16.23;;
12112;SDS011;6120;52.250;8.478;2022-12-13T09:22:03;37.33;;;15.75;;
12112;SDS011;6120;52.250;8.478;2022-12-13T09:24:30;37.58;;;15.43;;
12112;SDS011;6120;52.250;8.478;2022-12-13T09:27:02;45.65;;;17.05;;
12112;SDS011;6120;52.250;8.478;2022-12-13T09:29:35;44.38;;;16.10;;
12112;SDS011;6120;52.250;8.478;2022-12-13T09:32:02;38.83;;;15.48;;
12112;SDS011;6120;52.250;8.478;2022-12-13T09:34:29;49.42;;;17.13;;
12112;SDS011;6120;52.250;8.478;2022-12-13T09:36:58;46.33;;;16.30;;
12112;SDS011;6120;52.250;8.478;2022-12-13T09:39:26;41.13;;;16.38;;
12112;SDS011;6120;52.250;8.478;2022-12-13T09:41:55;41.28;;;16.85;;
12112;SDS011;6120;52.250;8.478;2022-12-13T09:44:30;42.35;;;17.85;;
12112;SDS011;6120;52.250;8.478;2022-12-13T09:47:17;40.53;;;16.30;;
12112;SDS011;6120;52.250;8.478;2022-12-13T09:50:21;44.55;;;15.88;;
12112;SDS011;6120;52.250;8.478;2022-12-13T09:52:50;47.38;;;16.75;;
12112;SDS011;6120;52.250;8.478;2022-12-13T09:55:27;48.92;;;18.55;;
12112;SDS011;6120;52.250;8.478;2022-12-13T09:57:58;41.63;;;17.33;;
12112;SDS011;6120;52.250;8.478;2022-12-13T10:00:27;47.33;;;16.38;;
12112;SDS011;6120;52.250;8.478;2022-12-13T10:03:00;45.13;;;16.50;;
12112;SDS011;6120;52.250;8.478;2022-12-13T10:08:06;46.80;;;16.48;;
12112;SDS011;6120;52.250;8.478;2022-12-13T10:10:46;44.05;;;16.05;;
12112;SDS011;6120;52.250;8.478;2022-12-13T10:16:10;41.90;;;15.88;;
12112;SDS011;6120;52.250;8.478;2022-12-13T10:18:48;43.25;;;17.42;;
12112;SDS011;6120;52.250;8.478;2022-12-13T10:21:19;42.50;;;15.95;;
12112;SDS011;6120;52.250;8.478;2022-12-13T10:23:47;39.10;;;15.90;;
12112;SDS011;6120;52.250;8.478;2022-12-13T10:26:35;41.05;;;14.82;;
12112;SDS011;6120;52.250;8.478;2022-12-13T10:31:29;42.28;;;15.85;;
12112;SDS011;6120;52.250;8.478;2022-12-13T10:34:15;38.42;;;15.55;;
12112;SDS011;6120;52.250;8.478;2022-12-13T10:36:50;42.55;;;15.55;;
12112;SDS011;6120;52.250;8.478;2022-12-13T10:42:17;42.22;;;16.13;;
12112;SDS011;6120;52.250;8.478;2022-12-13T10:45:07;44.47;;;16.08;;
12112;SDS011;6120;52.250;8.478;2022-12-13T10:47:35;43.78;;;15.20;;
12112;SDS011;6120;52.250;8.478;2022-12-13T10:50:02;44.88;;;17.23;;
12112;SDS011;6120;52.250;8.478;2022-12-13T10:52:33;40.70;;;16.15;;
12112;SDS011;6120;52.250;8.478;2022-12-13T10:55:25;38.42;;;15.65;;
12112;SDS011;6120;52.250;8.478;2022-12-13T10:58:01;38.45;;;14.98;;
12112;SDS011;6120;52.250;8.478;2022-12-13T11:00:34;46.72;;;15.98;;
12112;SDS011;6120;52.250;8.478;2022-12-13T11:03:35;41.80;;;15.77;;
12112;SDS011;6120;52.250;8.478;2022-12-13T11:08:35;43.10;;;17.25;;
12112;SDS011;6120;52.250;8.478;2022-12-13T11:11:02;41.50;;;17.10;;
12112;SDS011;6120;52.250;8.478;2022-12-13T11:16:19;39.78;;;15.30;;
12112;SDS011;6120;52.250;8.478;2022-12-13T11:18:58;44.38;;;16.77;;
12112;SDS011;6120;52.250;8.478;2022-12-13T11:21:28;44.47;;;16.55;;
12112;SDS011;6120;52.250;8.478;2022-12-13T11:23:58;40.78;;;15.48;;
12112;SDS011;6120;52.250;8.478;2022-12-13T11:26:28;39.03;;;16.08;;
12112;SDS011;6120;52.250;8.478;2022-12-13T11:36:58;44.83;;;16.90;;
12112;SDS011;6120;52.250;8.478;2022-12-13T11:39:53;48.50;;;18.55;;
12112;SDS011;6120;52.250;8.478;2022-12-13T11:50:34;45.97;;;16.80;;
12112;SDS011;6120;52.250;8.478;2022-12-13T12:01:34;46.33;;;15.88;;
12112;SDS011;6120;52.250;8.478;2022-12-13T12:04:11;46.38;;;17.33;;
12112;SDS011;6120;52.250;8.478;2022-12-13T12:06:43;47.65;;;17.13;;
12112;SDS011;6120;52.250;8.478;2022-12-13T12:09:53;47.13;;;18.27;;
12112;SDS011;6120;52.250;8.478;2022-12-13T12:12:29;45.55;;;18.08;;
12112;SDS011;6120;52.250;8.478;2022-12-13T12:14:59;47.28;;;17.83;;
12112;SDS011;6120;52.250;8.478;2022-12-13T12:17:41;50.22;;;19.15;;
12112;SDS011;6120;52.250;8.478;2022-12-13T12:20:10;42.78;;;16.63;;
12112;SDS011;6120;52.250;8.478;2022-12-13T12:33:42;44.22;;;18.67;;
12112;SDS011;6120;52.250;8.478;2022-12-13T12:45:25;48.72;;;17.90;;
12112;SDS011;6120;52.250;8.478;2022-12-13T12:48:44;42.55;;;16.90;;
12112;SDS011;6120;52.250;8.478;2022-12-13T12:54:33;41.97;;;17.08;;
12112;SDS011;6120;52.250;8.478;2022-12-13T12:59:42;50.17;;;18.17;;
12112;SDS011;6120;52.250;8.478;2022-12-13T13:02:38;49.03;;;17.27;;
12112;SDS011;6120;52.250;8.478;2022-12-13T13:05:14;42.38;;;17.75;;
12112;SDS011;6120;52.250;8.478;2022-12-13T13:08:01;43.92;;;17.65;;
12112;SDS011;6120;52.250;8.478;2022-12-13T13:10:32;48.47;;;19.17;;
12112;SDS011;6120;52.250;8.478;2022-12-13T13:12:59;46.03;;;17.08;;
12112;SDS011;6120;52.250;8.478;2022-12-13T13:18:07;50.78;;;19.27;;
12112;SDS011;6120;52.250;8.478;2022-12-13T13:24:12;57.67;;;22.05;;
12112;SDS011;6120;52.250;8.478;2022-12-13T13:26:50;48.53;;;18.83;;
12112;SDS011;6120;52.250;8.478;2022-12-13T13:35:00;51.58;;;19.50;;
12112;SDS011;6120;52.250;8.478;2022-12-13T13:40:49;54.25;;;19.60;;
12112;SDS011;6120;52.250;8.478;2022-12-13T13:43:16;50.03;;;19.25;;
12112;SDS011;6120;52.250;8.478;2022-12-13T13:45:59;50.80;;;21.23;;
12112;SDS011;6120;52.250;8.478;2022-12-13T13:54:35;52.85;;;19.60;;
12112;SDS011;6120;52.250;8.478;2022-12-13T14:09:48;47.28;;;18.95;;
12112;SDS011;6120;52.250;8.478;2022-12-13T14:29:29;44.13;;;18.25;;
12112;SDS011;6120;52.250;8.478;2022-12-13T14:31:57;49.15;;;18.90;;
12112;SDS011;6120;52.250;8.478;2022-12-13T14:34:24;48.20;;;18.77;;
12112;SDS011;6120;52.250;8.478;2022-12-13T14:36:57;40.40;;;18.15;;
12112;SDS011;6120;52.250;8.478;2022-12-13T14:39:25;40.92;;;17.25;;
12112;SDS011;6120;52.250;8.478;2022-12-13T14:41:55;47.63;;;18.88;;
12112;SDS011;6120;52.250;8.478;2022-12-13T14:44:29;48.38;;;17.42;;
12112;SDS011;6120;52.250;8.478;2022-12-13T14:47:05;45.95;;;18.42;;
12112;SDS011;6120;52.250;8.478;2022-12-13T14:49:34;50.65;;;18.48;;
12112;SDS011;6120;52.250;8.478;2022-12-13T14:52:03;42.72;;;18.15;;
12112;SDS011;6120;52.250;8.478;2022-12-13T14:54:45;43.97;;;18.58;;
12112;SDS011;6120;52.250;8.478;2022-12-13T14:57:25;50.38;;;19.02;;
12112;SDS011;6120;52.250;8.478;2022-12-13T14:59:54;47.33;;;18.63;;
12112;SDS011;6120;52.250;8.478;2022-12-13T15:02:23;46.78;;;17.55;;
12112;SDS011;6120;52.250;8.478;2022-12-13T15:05:00;48.15;;;17.98;;
12112;SDS011;6120;52.250;8.478;2022-12-13T15:10:45;52.95;;;19.17;;
12112;SDS011;6120;52.250;8.478;2022-12-13T15:15:56;54.55;;;19.45;;
12112;SDS011;6120;52.250;8.478;2022-12-13T15:18:36;46.78;;;18.77;;
12112;SDS011;6120;52.250;8.478;2022-12-13T15:21:03;47.45;;;20.50;;
12112;SDS011;6120;52.250;8.478;2022-12-13T15:23:49;48.05;;;17.70;;
12112;SDS011;6120;52.250;8.478;2022-12-13T15:26:18;49.78;;;19.50;;
12112;SDS011;6120;52.250;8.478;2022-12-13T15:28:59;42.88;;;18.75;;
12112;SDS011;6120;52.250;8.478;2022-12-13T15:31:35;47.33;;;18.13;;
12112;SDS011;6120;52.250;8.478;2022-12-13T15:36:59;47.33;;;19.80;;
12112;SDS011;6120;52.250;8.478;2022-12-13T15:39:56;47.15;;;17.67;;
12112;SDS011;6120;52.250;8.478;2022-12-13T15:42:27;51.40;;;20.42;;
12112;SDS011;6120;52.250;8.478;2022-12-13T15:44:57;56.05;;;19.58;;
12112;SDS011;6120;52.250;8.478;2022-12-13T15:47:26;53.28;;;20.13;;
12112;SDS011;6120;52.250;8.478;2022-12-13T15:49:56;48.40;;;19.08;;
12112;SDS011;6120;52.250;8.478;2022-12-13T15:57:34;51.42;;;20.08;;
12112;SDS011;6120;52.250;8.478;2022-12-13T16:00:18;53.08;;;20.55;;
12112;SDS011;6120;52.250;8.478;2022-12-13T16:02:58;53.03;;;21.70;;
12112;SDS011;6120;52.250;8.478;2022-12-13T16:05:35;55.55;;;19.58;;
12112;SDS011;6120;52.250;8.478;2022-12-13T16:10:44;54.42;;;19.65;;
12112;SDS011;6120;52.250;8.478;2022-12-13T16:13:27;53.90;;;20.05;;
12112;SDS011;6120;52.250;8.478;2022-12-13T16:15:59;52.33;;;20.08;;
12112;SDS011;6120;52.250;8.478;2022-12-13T16:18:45;55.38;;;22.60;;
12112;SDS011;6120;52.250;8.478;2022-12-13T16:21:17;62.97;;;25.45;;
12112;SDS011;6120;52.250;8.478;2022-12-13T16:23:44;64.38;;;24.13;;
12112;SDS011;6120;52.250;8.478;2022-12-13T16:26:14;64.88;;;23.40;;
12112;SDS011;6120;52.250;8.478;2022-12-13T16:28:46;51.20;;;21.65;;
12112;SDS011;6120;52.250;8.478;2022-12-13T16:31:17;56.75;;;21.38;;
12112;SDS011;6120;52.250;8.478;2022-12-13T16:33:46;54.60;;;21.73;;
12112;SDS011;6120;52.250;8.478;2022-12-13T16:36:13;56.77;;;21.80;;
12112;SDS011;6120;52.250;8.478;2022-12-13T16:38:40;63.95;;;22.08;;
12112;SDS011;6120;52.250;8.478;2022-12-13T16:41:07;53.50;;;20.95;;
12112;SDS011;6120;52.250;8.478;2022-12-13T16:43:39;55.42;;;21.92;;
12112;SDS011;6120;52.250;8.478;2022-12-13T16:46:10;52.72;;;20.83;;
12112;SDS011;6120;52.250;8.478;2022-12-13T16:51:24;52.53;;;17.98;;
12112;SDS011;6120;52.250;8.478;2022-12-13T16:53:50;49.60;;;19.33;;
12112;SDS011;6120;52.250;8.478;2022-12-13T16:56:17;61.60;;;21.90;;
12112;SDS011;6120;52.250;8.478;2022-12-13T16:58:47;53.28;;;20.27;;
12112;SDS011;6120;52.250;8.478;2022-12-13T17:01:19;54.47;;;21.40;;
12112;SDS011;6120;52.250;8.478;2022-12-13T17:03:46;49.22;;;19.33;;
12112;SDS011;6120;52.250;8.478;2022-12-13T17:06:13;60.20;;;21.52;;
12112;SDS011;6120;52.250;8.478;2022-12-13T17:08:41;59.45;;;20.33;;
12112;SDS011;6120;52.250;8.478;2022-12-13T17:11:08;53.58;;;20.45;;
12112;SDS011;6120;52.250;8.478;2022-12-13T17:13:41;52.15;;;20.45;;
12112;SDS011;6120;52.250;8.478;2022-12-13T17:16:09;52.00;;;18.90;;
12112;SDS011;6120;52.250;8.478;2022-12-13T17:18:36;56.03;;;23.15;;
12112;SDS011;6120;52.250;8.478;2022-12-13T17:21:06;57.50;;;22.67;;
12112;SDS011;6120;52.250;8.478;2022-12-13T17:23:34;58.75;;;21.67;;
12112;SDS011;6120;52.250;8.478;2022-12-13T17:26:04;56.78;;;22.13;;
12112;SDS011;6120;52.250;8.478;2022-12-13T17:28:31;52.15;;;19.90;;
12112;SDS011;6120;52.250;8.478;2022-12-13T17:31:09;50.80;;;20.08;;
12112;SDS011;6120;52.250;8.478;2022-12-13T17:33:40;55.35;;;20.42;;
12112;SDS011;6120;52.250;8.478;2022-12-13T17:36:07;52.22;;;20.25;;
12112;SDS011;6120;52.250;8.478;2022-12-13T17:38:35;59.70;;;21.02;;
12112;SDS011;6120;52.250;8.478;2022-12-13T17:41:02;55.28;;;21.13;;
12112;SDS011;6120;52.250;8.478;2022-12-13T17:43:29;55.33;;;19.55;;
12112;SDS011;6120;52.250;8.478;2022-12-13T17:46:04;57.70;;;20.77;;
12112;SDS011;6120;52.250;8.478;2022-12-13T17:48:32;56.47;;;20.40;;